This is the latest recevied weather packets stored in our database for station/object ON3FV. If no packets are shown the sender has not sent any weather packets the latest 10 day(s).
| Time | Temp. | Humidity | Pressure | Rain* | Wind** | Luminosity | Snow |
|---|---|---|---|---|---|---|---|
| 1777918693 | 16.11° C | 80% | 1011.1 hPa | - | - | - | - |
| 1777918391 | 16.67° C | 81% | 1011 hPa | - | - | - | - |
| 1777917489 | 17.22° C | 80% | 1010.9 hPa | - | - | - | - |
| 1777916886 | 17.78° C | 81% | 1010.9 hPa | - | - | - | - |
| 1777916586 | 17.78° C | 81% | 1011 hPa | - | - | - | - |
| 1777916285 | 17.78° C | 81% | 1011 hPa | - | - | - | - |
| 1777912974 | 20° C | 76% | 1010.8 hPa | - | - | - | - |
| 1777912071 | 20° C | 76% | 1010.8 hPa | - | - | - | - |
| 1777910566 | 19.44° C | 78% | 1010.8 hPa | - | - | - | - |
| 1777905449 | 18.89° C | 79% | 1011.3 hPa | - | - | - | - |
| 1777903683 | 18.33° C | 81% | 1011.7 hPa | - | - | - | - |
| 1777903061 | 18.33° C | 81% | 1011.7 hPa | - | - | - | - |
| 1777901536 | 18.33° C | 80% | 1011.9 hPa | - | - | - | - |
| 1777900934 | 18.33° C | 80% | 1011.9 hPa | - | - | - | - |
| 1777899128 | 18.89° C | 80% | 1012 hPa | - | - | - | - |
| 1777897924 | 18.89° C | 80% | 1012.1 hPa | - | - | - | - |
| 1777896117 | 18.89° C | 81% | 1012.1 hPa | - | - | - | - |
| 1777895516 | 18.89° C | 81% | 1012.2 hPa | - | - | - | - |
| 1777894914 | 18.89° C | 81% | 1012.2 hPa | - | - | - | - |
| 1777894635 | 18.33° C | 81% | 1012.3 hPa | - | - | - | - |
| 1777892807 | 18.33° C | 83% | 1012.5 hPa | - | - | - | - |
| 1777891903 | 18.33° C | 83% | 1012.5 hPa | - | - | - | - |
| 1777891001 | 17.78° C | 84% | 1012.6 hPa | - | - | - | - |
| 1777888593 | 17.22° C | 84% | 1012.6 hPa | - | - | - | - |
| 1777886486 | 16.67° C | 85% | 1012.6 hPa | - | - | - | - |
* Rain since midnight (hover to see other rain measurements)
** Current wind speed in m/s (hover to see current wind gust speed)